sensor_id;sensor_type;location;lat;lon;timestamp;P1;durP1;ratioP1;P2;durP2;ratioP2
12832;SDS011;6483;51.310;4.462;2023-02-12T00:02:08;13.27;;;8.50;;
12832;SDS011;6483;51.310;4.462;2023-02-12T00:04:34;11.33;;;7.53;;
12832;SDS011;6483;51.310;4.462;2023-02-12T00:06:59;10.48;;;7.82;;
12832;SDS011;6483;51.310;4.462;2023-02-12T00:09:25;13.67;;;8.27;;
12832;SDS011;6483;51.310;4.462;2023-02-12T00:11:51;13.00;;;7.63;;
12832;SDS011;6483;51.310;4.462;2023-02-12T00:14:17;12.90;;;7.37;;
12832;SDS011;6483;51.310;4.462;2023-02-12T00:16:43;13.03;;;7.97;;
12832;SDS011;6483;51.310;4.462;2023-02-12T00:19:08;12.60;;;7.90;;
12832;SDS011;6483;51.310;4.462;2023-02-12T00:21:34;13.03;;;7.40;;
12832;SDS011;6483;51.310;4.462;2023-02-12T00:24:00;12.57;;;7.57;;
12832;SDS011;6483;51.310;4.462;2023-02-12T00:26:28;13.00;;;7.10;;
12832;SDS011;6483;51.310;4.462;2023-02-12T00:28:53;15.63;;;8.80;;
12832;SDS011;6483;51.310;4.462;2023-02-12T00:31:20;10.03;;;6.83;;
12832;SDS011;6483;51.310;4.462;2023-02-12T00:33:48;11.43;;;8.10;;
12832;SDS011;6483;51.310;4.462;2023-02-12T00:36:18;10.27;;;6.95;;
12832;SDS011;6483;51.310;4.462;2023-02-12T00:38:45;10.53;;;6.43;;
12832;SDS011;6483;51.310;4.462;2023-02-12T00:41:12;13.63;;;7.67;;
12832;SDS011;6483;51.310;4.462;2023-02-12T00:43:39;11.50;;;8.03;;
12832;SDS011;6483;51.310;4.462;2023-02-12T00:46:05;12.57;;;8.30;;
12832;SDS011;6483;51.310;4.462;2023-02-12T00:48:32;11.87;;;7.97;;
12832;SDS011;6483;51.310;4.462;2023-02-12T00:50:58;11.00;;;7.83;;
12832;SDS011;6483;51.310;4.462;2023-02-12T00:53:24;11.60;;;8.33;;
12832;SDS011;6483;51.310;4.462;2023-02-12T00:55:50;10.77;;;7.13;;
12832;SDS011;6483;51.310;4.462;2023-02-12T00:58:15;11.47;;;6.87;;
12832;SDS011;6483;51.310;4.462;2023-02-12T01:00:42;11.37;;;6.73;;
12832;SDS011;6483;51.310;4.462;2023-02-12T01:03:08;11.30;;;7.40;;
12832;SDS011;6483;51.310;4.462;2023-02-12T01:05:34;11.43;;;6.73;;
12832;SDS011;6483;51.310;4.462;2023-02-12T01:08:00;10.40;;;6.80;;
12832;SDS011;6483;51.310;4.462;2023-02-12T01:10:26;9.40;;;6.83;;
12832;SDS011;6483;51.310;4.462;2023-02-12T01:12:53;13.17;;;6.57;;
12832;SDS011;6483;51.310;4.462;2023-02-12T01:15:19;10.60;;;7.23;;
12832;SDS011;6483;51.310;4.462;2023-02-12T01:17:45;11.33;;;7.80;;
12832;SDS011;6483;51.310;4.462;2023-02-12T01:20:14;11.13;;;7.50;;
12832;SDS011;6483;51.310;4.462;2023-02-12T01:22:41;11.47;;;7.07;;
12832;SDS011;6483;51.310;4.462;2023-02-12T01:25:07;10.00;;;7.17;;
12832;SDS011;6483;51.310;4.462;2023-02-12T01:27:33;10.90;;;7.07;;
12832;SDS011;6483;51.310;4.462;2023-02-12T01:29:59;11.23;;;7.47;;
12832;SDS011;6483;51.310;4.462;2023-02-12T01:32:24;10.77;;;7.63;;
12832;SDS011;6483;51.310;4.462;2023-02-12T01:34:50;11.03;;;7.53;;
12832;SDS011;6483;51.310;4.462;2023-02-12T01:37:16;12.50;;;7.87;;
12832;SDS011;6483;51.310;4.462;2023-02-12T01:39:42;10.90;;;7.30;;
12832;SDS011;6483;51.310;4.462;2023-02-12T01:42:11;8.10;;;6.23;;
12832;SDS011;6483;51.310;4.462;2023-02-12T01:44:42;11.37;;;6.03;;
12832;SDS011;6483;51.310;4.462;2023-02-12T01:47:29;8.93;;;5.53;;
12832;SDS011;6483;51.310;4.462;2023-02-12T01:49:54;8.37;;;5.37;;
12832;SDS011;6483;51.310;4.462;2023-02-12T01:52:22;5.97;;;5.37;;
12832;SDS011;6483;51.310;4.462;2023-02-12T01:54:53;8.83;;;5.50;;
12832;SDS011;6483;51.310;4.462;2023-02-12T01:57:20;7.00;;;5.13;;
12832;SDS011;6483;51.310;4.462;2023-02-12T01:59:47;7.07;;;4.97;;
12832;SDS011;6483;51.310;4.462;2023-02-12T02:02:16;13.20;;;5.53;;
12832;SDS011;6483;51.310;4.462;2023-02-12T02:04:43;7.90;;;4.90;;
12832;SDS011;6483;51.310;4.462;2023-02-12T02:07:12;7.47;;;5.10;;
12832;SDS011;6483;51.310;4.462;2023-02-12T02:09:39;7.47;;;5.33;;
12832;SDS011;6483;51.310;4.462;2023-02-12T02:12:05;8.10;;;6.07;;
12832;SDS011;6483;51.310;4.462;2023-02-12T02:14:50;9.03;;;5.60;;
12832;SDS011;6483;51.310;4.462;2023-02-12T02:22:25;7.90;;;5.07;;
12832;SDS011;6483;51.310;4.462;2023-02-12T02:25:42;7.37;;;5.60;;
12832;SDS011;6483;51.310;4.462;2023-02-12T02:31:12;6.63;;;5.23;;
12832;SDS011;6483;51.310;4.462;2023-02-12T02:33:53;9.67;;;5.33;;
12832;SDS011;6483;51.310;4.462;2023-02-12T02:39:24;9.60;;;5.57;;
12832;SDS011;6483;51.310;4.462;2023-02-12T02:41:55;10.80;;;5.87;;
12832;SDS011;6483;51.310;4.462;2023-02-12T02:44:27;9.10;;;5.70;;
12832;SDS011;6483;51.310;4.462;2023-02-12T02:46:59;7.17;;;5.80;;
12832;SDS011;6483;51.310;4.462;2023-02-12T02:49:30;6.70;;;5.55;;
12832;SDS011;6483;51.310;4.462;2023-02-12T02:52:06;7.67;;;5.20;;
12832;SDS011;6483;51.310;4.462;2023-02-12T02:54:41;10.50;;;5.67;;
12832;SDS011;6483;51.310;4.462;2023-02-12T02:57:15;10.47;;;5.43;;
12832;SDS011;6483;51.310;4.462;2023-02-12T02:59:49;9.30;;;5.53;;
12832;SDS011;6483;51.310;4.462;2023-02-12T03:02:30;9.63;;;5.70;;
12832;SDS011;6483;51.310;4.462;2023-02-12T03:05:01;6.78;;;5.53;;
12832;SDS011;6483;51.310;4.462;2023-02-12T03:07:36;8.27;;;5.90;;
12832;SDS011;6483;51.310;4.462;2023-02-12T03:12:40;13.00;;;5.83;;
12832;SDS011;6483;51.310;4.462;2023-02-12T03:15:36;10.07;;;6.10;;
12832;SDS011;6483;51.310;4.462;2023-02-12T03:18:11;6.70;;;5.13;;
12832;SDS011;6483;51.310;4.462;2023-02-12T03:20:44;9.30;;;5.70;;
12832;SDS011;6483;51.310;4.462;2023-02-12T03:23:24;7.73;;;6.13;;
12832;SDS011;6483;51.310;4.462;2023-02-12T03:25:56;7.03;;;5.50;;
12832;SDS011;6483;51.310;4.462;2023-02-12T03:28:29;7.60;;;5.80;;
12832;SDS011;6483;51.310;4.462;2023-02-12T03:36:52;8.17;;;6.10;;
12832;SDS011;6483;51.310;4.462;2023-02-12T03:45:18;10.33;;;6.67;;
12832;SDS011;6483;51.310;4.462;2023-02-12T03:47:51;11.00;;;7.33;;
12832;SDS011;6483;51.310;4.462;2023-02-12T03:50:57;10.30;;;7.40;;
12832;SDS011;6483;51.310;4.462;2023-02-12T03:53:28;10.53;;;6.67;;
12832;SDS011;6483;51.310;4.462;2023-02-12T03:55:57;10.03;;;7.07;;
12832;SDS011;6483;51.310;4.462;2023-02-12T03:58:46;9.87;;;6.77;;
12832;SDS011;6483;51.310;4.462;2023-02-12T04:01:12;11.87;;;8.00;;
12832;SDS011;6483;51.310;4.462;2023-02-12T04:03:38;9.57;;;7.73;;
12832;SDS011;6483;51.310;4.462;2023-02-12T04:06:16;12.73;;;7.57;;
12832;SDS011;6483;51.310;4.462;2023-02-12T04:08:53;11.13;;;7.27;;
12832;SDS011;6483;51.310;4.462;2023-02-12T04:20:38;9.40;;;6.90;;
12832;SDS011;6483;51.310;4.462;2023-02-12T04:31:22;12.53;;;8.33;;
12832;SDS011;6483;51.310;4.462;2023-02-12T04:33:53;9.80;;;8.17;;
12832;SDS011;6483;51.310;4.462;2023-02-12T04:36:49;10.77;;;8.03;;
12832;SDS011;6483;51.310;4.462;2023-02-12T04:39:27;15.43;;;9.23;;
12832;SDS011;6483;51.310;4.462;2023-02-12T04:42:01;13.40;;;10.57;;
12832;SDS011;6483;51.310;4.462;2023-02-12T04:44:29;10.33;;;8.43;;
12832;SDS011;6483;51.310;4.462;2023-02-12T04:46:58;10.63;;;8.43;;
12832;SDS011;6483;51.310;4.462;2023-02-12T04:49:23;12.87;;;9.00;;
12832;SDS011;6483;51.310;4.462;2023-02-12T04:51:50;10.77;;;8.37;;
12832;SDS011;6483;51.310;4.462;2023-02-12T04:54:17;12.70;;;8.77;;
12832;SDS011;6483;51.310;4.462;2023-02-12T04:56:44;14.03;;;9.07;;
12832;SDS011;6483;51.310;4.462;2023-02-12T04:59:10;11.10;;;8.67;;
12832;SDS011;6483;51.310;4.462;2023-02-12T05:01:36;11.73;;;8.67;;
12832;SDS011;6483;51.310;4.462;2023-02-12T05:04:03;12.50;;;9.83;;
12832;SDS011;6483;51.310;4.462;2023-02-12T05:06:30;10.97;;;8.43;;
12832;SDS011;6483;51.310;4.462;2023-02-12T05:08:58;13.30;;;8.87;;
12832;SDS011;6483;51.310;4.462;2023-02-12T05:11:24;11.77;;;8.77;;
12832;SDS011;6483;51.310;4.462;2023-02-12T05:13:50;13.10;;;9.80;;
12832;SDS011;6483;51.310;4.462;2023-02-12T05:16:17;13.57;;;10.50;;
12832;SDS011;6483;51.310;4.462;2023-02-12T05:18:43;13.10;;;9.57;;
12832;SDS011;6483;51.310;4.462;2023-02-12T05:21:09;13.23;;;9.40;;
12832;SDS011;6483;51.310;4.462;2023-02-12T05:23:36;13.63;;;9.93;;
12832;SDS011;6483;51.310;4.462;2023-02-12T05:26:05;14.13;;;10.50;;
12832;SDS011;6483;51.310;4.462;2023-02-12T05:28:41;13.33;;;10.00;;
12832;SDS011;6483;51.310;4.462;2023-02-12T05:31:08;13.57;;;10.33;;
12832;SDS011;6483;51.310;4.462;2023-02-12T05:33:35;13.77;;;9.30;;
12832;SDS011;6483;51.310;4.462;2023-02-12T05:36:04;16.53;;;11.50;;
12832;SDS011;6483;51.310;4.462;2023-02-12T05:38:31;12.93;;;9.40;;
12832;SDS011;6483;51.310;4.462;2023-02-12T05:41:05;11.13;;;9.20;;
12832;SDS011;6483;51.310;4.462;2023-02-12T05:43:33;12.53;;;9.30;;
12832;SDS011;6483;51.310;4.462;2023-02-12T05:45:59;10.80;;;9.00;;
12832;SDS011;6483;51.310;4.462;2023-02-12T05:48:26;11.87;;;8.73;;
12832;SDS011;6483;51.310;4.462;2023-02-12T05:51:00;10.63;;;8.47;;
12832;SDS011;6483;51.310;4.462;2023-02-12T05:53:26;12.17;;;9.20;;
12832;SDS011;6483;51.310;4.462;2023-02-12T05:55:52;12.47;;;9.23;;
12832;SDS011;6483;51.310;4.462;2023-02-12T05:58:18;12.10;;;9.30;;
12832;SDS011;6483;51.310;4.462;2023-02-12T06:00:43;11.90;;;8.80;;
12832;SDS011;6483;51.310;4.462;2023-02-12T06:03:09;15.03;;;10.90;;
12832;SDS011;6483;51.310;4.462;2023-02-12T06:05:35;12.80;;;10.93;;
12832;SDS011;6483;51.310;4.462;2023-02-12T06:08:00;11.87;;;10.47;;
12832;SDS011;6483;51.310;4.462;2023-02-12T06:10:26;13.30;;;9.53;;
12832;SDS011;6483;51.310;4.462;2023-02-12T06:12:52;14.13;;;10.43;;
12832;SDS011;6483;51.310;4.462;2023-02-12T06:15:18;14.17;;;10.27;;
12832;SDS011;6483;51.310;4.462;2023-02-12T06:17:44;13.57;;;9.47;;
12832;SDS011;6483;51.310;4.462;2023-02-12T06:20:10;12.30;;;10.30;;
12832;SDS011;6483;51.310;4.462;2023-02-12T06:22:36;12.57;;;9.53;;
12832;SDS011;6483;51.310;4.462;2023-02-12T06:25:02;14.37;;;11.83;;
12832;SDS011;6483;51.310;4.462;2023-02-12T06:27:29;17.30;;;12.20;;
12832;SDS011;6483;51.310;4.462;2023-02-12T06:29:54;20.13;;;13.00;;
12832;SDS011;6483;51.310;4.462;2023-02-12T06:32:20;17.13;;;12.27;;
12832;SDS011;6483;51.310;4.462;2023-02-12T06:34:46;17.63;;;12.37;;
12832;SDS011;6483;51.310;4.462;2023-02-12T06:37:12;14.63;;;11.73;;
12832;SDS011;6483;51.310;4.462;2023-02-12T06:39:40;12.40;;;10.63;;
12832;SDS011;6483;51.310;4.462;2023-02-12T06:42:09;12.33;;;10.40;;
12832;SDS011;6483;51.310;4.462;2023-02-12T06:44:37;15.17;;;10.47;;
12832;SDS011;6483;51.310;4.462;2023-02-12T06:47:03;13.27;;;11.33;;
12832;SDS011;6483;51.310;4.462;2023-02-12T06:49:29;15.23;;;10.87;;
12832;SDS011;6483;51.310;4.462;2023-02-12T06:51:55;12.33;;;10.53;;
12832;SDS011;6483;51.310;4.462;2023-02-12T06:54:20;12.57;;;10.23;;
12832;SDS011;6483;51.310;4.462;2023-02-12T06:56:46;17.77;;;11.13;;
12832;SDS011;6483;51.310;4.462;2023-02-12T06:59:13;14.50;;;10.70;;
12832;SDS011;6483;51.310;4.462;2023-02-12T07:01:40;13.43;;;10.80;;
12832;SDS011;6483;51.310;4.462;2023-02-12T07:04:06;16.07;;;10.53;;
12832;SDS011;6483;51.310;4.462;2023-02-12T07:06:33;14.30;;;11.27;;
12832;SDS011;6483;51.310;4.462;2023-02-12T07:09:03;16.23;;;11.57;;
12832;SDS011;6483;51.310;4.462;2023-02-12T07:11:30;13.27;;;11.23;;
12832;SDS011;6483;51.310;4.462;2023-02-12T07:13:58;13.30;;;11.00;;
12832;SDS011;6483;51.310;4.462;2023-02-12T07:16:24;13.67;;;11.50;;
12832;SDS011;6483;51.310;4.462;2023-02-12T07:18:50;17.47;;;11.90;;
12832;SDS011;6483;51.310;4.462;2023-02-12T07:21:16;16.67;;;11.60;;
12832;SDS011;6483;51.310;4.462;2023-02-12T07:23:47;15.30;;;11.40;;
12832;SDS011;6483;51.310;4.462;2023-02-12T07:26:14;15.73;;;11.23;;
12832;SDS011;6483;51.310;4.462;2023-02-12T07:28:43;13.40;;;10.83;;
12832;SDS011;6483;51.310;4.462;2023-02-12T07:33:35;18.70;;;12.93;;
12832;SDS011;6483;51.310;4.462;2023-02-12T07:36:06;14.13;;;11.03;;
12832;SDS011;6483;51.310;4.462;2023-02-12T07:38:34;16.87;;;11.50;;
12832;SDS011;6483;51.310;4.462;2023-02-12T07:41:14;16.10;;;10.50;;
12832;SDS011;6483;51.310;4.462;2023-02-12T07:43:44;13.03;;;10.17;;
12832;SDS011;6483;51.310;4.462;2023-02-12T07:48:42;13.60;;;10.53;;
12832;SDS011;6483;51.310;4.462;2023-02-12T07:51:10;13.73;;;11.33;;
12832;SDS011;6483;51.310;4.462;2023-02-12T07:53:37;14.73;;;10.27;;
12832;SDS011;6483;51.310;4.462;2023-02-12T07:56:07;16.23;;;11.20;;
12832;SDS011;6483;51.310;4.462;2023-02-12T07:58:35;16.07;;;11.30;;
12832;SDS011;6483;51.310;4.462;2023-02-12T08:03:50;13.80;;;10.13;;
12832;SDS011;6483;51.310;4.462;2023-02-12T08:06:17;16.63;;;11.87;;
12832;SDS011;6483;51.310;4.462;2023-02-12T08:08:49;16.03;;;11.40;;
12832;SDS011;6483;51.310;4.462;2023-02-12T08:11:16;13.63;;;11.10;;
12832;SDS011;6483;51.310;4.462;2023-02-12T08:13:43;16.63;;;11.03;;
12832;SDS011;6483;51.310;4.462;2023-02-12T08:16:11;16.53;;;11.57;;
12832;SDS011;6483;51.310;4.462;2023-02-12T08:18:38;18.10;;;11.93;;
12832;SDS011;6483;51.310;4.462;2023-02-12T08:21:09;17.23;;;13.33;;
12832;SDS011;6483;51.310;4.462;2023-02-12T08:23:37;20.23;;;14.10;;
12832;SDS011;6483;51.310;4.462;2023-02-12T08:26:37;18.47;;;12.73;;
12832;SDS011;6483;51.310;4.462;2023-02-12T08:29:06;17.43;;;12.80;;
12832;SDS011;6483;51.310;4.462;2023-02-12T08:31:34;18.47;;;11.70;;
12832;SDS011;6483;51.310;4.462;2023-02-12T08:34:05;15.30;;;11.93;;
12832;SDS011;6483;51.310;4.462;2023-02-12T08:36:38;18.17;;;12.03;;
12832;SDS011;6483;51.310;4.462;2023-02-12T08:39:05;19.43;;;13.00;;
12832;SDS011;6483;51.310;4.462;2023-02-12T08:41:32;16.73;;;11.97;;
12832;SDS011;6483;51.310;4.462;2023-02-12T08:43:59;17.60;;;12.70;;
12832;SDS011;6483;51.310;4.462;2023-02-12T08:46:32;17.30;;;11.87;;
12832;SDS011;6483;51.310;4.462;2023-02-12T08:49:06;15.30;;;12.13;;
12832;SDS011;6483;51.310;4.462;2023-02-12T08:51:36;13.37;;;11.47;;
12832;SDS011;6483;51.310;4.462;2023-02-12T08:54:05;15.10;;;11.37;;
12832;SDS011;6483;51.310;4.462;2023-02-12T08:56:32;15.97;;;12.13;;
12832;SDS011;6483;51.310;4.462;2023-02-12T08:58:59;17.20;;;12.98;;
12832;SDS011;6483;51.310;4.462;2023-02-12T09:01:27;17.25;;;11.73;;
12832;SDS011;6483;51.310;4.462;2023-02-12T09:03:54;21.92;;;11.75;;
12832;SDS011;6483;51.310;4.462;2023-02-12T09:06:21;16.85;;;12.57;;
12832;SDS011;6483;51.310;4.462;2023-02-12T09:08:48;16.95;;;12.32;;
12832;SDS011;6483;51.310;4.462;2023-02-12T09:11:22;15.07;;;12.33;;
12832;SDS011;6483;51.310;4.462;2023-02-12T09:14:04;17.27;;;14.00;;
12832;SDS011;6483;51.310;4.462;2023-02-12T09:16:34;16.33;;;12.55;;
12832;SDS011;6483;51.310;4.462;2023-02-12T09:19:04;15.43;;;12.57;;
12832;SDS011;6483;51.310;4.462;2023-02-12T09:21:30;16.17;;;12.52;;
12832;SDS011;6483;51.310;4.462;2023-02-12T09:23:56;16.17;;;13.15;;
12832;SDS011;6483;51.310;4.462;2023-02-12T09:26:23;15.00;;;11.93;;
12832;SDS011;6483;51.310;4.462;2023-02-12T09:28:50;17.15;;;12.02;;
12832;SDS011;6483;51.310;4.462;2023-02-12T09:31:18;16.55;;;12.18;;
12832;SDS011;6483;51.310;4.462;2023-02-12T09:33:57;15.25;;;12.55;;
12832;SDS011;6483;51.310;4.462;2023-02-12T09:36:25;15.63;;;12.10;;
12832;SDS011;6483;51.310;4.462;2023-02-12T09:38:51;14.38;;;11.05;;
12832;SDS011;6483;51.310;4.462;2023-02-12T09:44:20;11.85;;;9.77;;
12832;SDS011;6483;51.310;4.462;2023-02-12T09:52:38;13.32;;;9.57;;
12832;SDS011;6483;51.310;4.462;2023-02-12T09:55:05;15.85;;;10.98;;
12832;SDS011;6483;51.310;4.462;2023-02-12T09:57:45;14.32;;;11.00;;
12832;SDS011;6483;51.310;4.462;2023-02-12T10:00:15;14.75;;;10.20;;
12832;SDS011;6483;51.310;4.462;2023-02-12T10:02:55;14.70;;;9.32;;
12832;SDS011;6483;51.310;4.462;2023-02-12T10:05:35;10.70;;;7.68;;
12832;SDS011;6483;51.310;4.462;2023-02-12T10:08:14;14.77;;;8.45;;
12832;SDS011;6483;51.310;4.462;2023-02-12T10:11:06;10.65;;;8.45;;
12832;SDS011;6483;51.310;4.462;2023-02-12T10:25:49;14.88;;;10.45;;
12832;SDS011;6483;51.310;4.462;2023-02-12T10:36:57;15.00;;;10.23;;
12832;SDS011;6483;51.310;4.462;2023-02-12T10:39:48;14.30;;;10.38;;
12832;SDS011;6483;51.310;4.462;2023-02-12T10:42:20;16.45;;;11.07;;
12832;SDS011;6483;51.310;4.462;2023-02-12T10:45:00;16.98;;;11.32;;
12832;SDS011;6483;51.310;4.462;2023-02-12T10:47:26;13.68;;;11.60;;
12832;SDS011;6483;51.310;4.462;2023-02-12T10:49:56;29.05;;;19.90;;
12832;SDS011;6483;51.310;4.462;2023-02-12T10:52:35;23.95;;;16.83;;
12832;SDS011;6483;51.310;4.462;2023-02-12T10:56:03;19.50;;;13.27;;
12832;SDS011;6483;51.310;4.462;2023-02-12T10:58:00;23.65;;;17.05;;
12832;SDS011;6483;51.310;4.462;2023-02-12T11:00:29;16.02;;;12.40;;
12832;SDS011;6483;51.310;4.462;2023-02-12T11:02:58;16.08;;;12.15;;
12832;SDS011;6483;51.310;4.462;2023-02-12T11:05:47;38.40;;;22.30;;
12832;SDS011;6483;51.310;4.462;2023-02-12T11:11:17;20.55;;;14.55;;
12832;SDS011;6483;51.310;4.462;2023-02-12T11:14:15;19.20;;;14.63;;
12832;SDS011;6483;51.310;4.462;2023-02-12T11:16:44;20.90;;;14.15;;
12832;SDS011;6483;51.310;4.462;2023-02-12T11:19:43;18.27;;;13.88;;
12832;SDS011;6483;51.310;4.462;2023-02-12T11:22:12;18.52;;;13.93;;
12832;SDS011;6483;51.310;4.462;2023-02-12T11:24:43;17.55;;;14.18;;
12832;SDS011;6483;51.310;4.462;2023-02-12T11:27:12;19.52;;;14.27;;
12832;SDS011;6483;51.310;4.462;2023-02-12T11:30:03;18.63;;;14.02;;
12832;SDS011;6483;51.310;4.462;2023-02-12T11:32:44;17.48;;;13.63;;
12832;SDS011;6483;51.310;4.462;2023-02-12T11:35:37;18.95;;;13.05;;
12832;SDS011;6483;51.310;4.462;2023-02-12T11:38:14;15.32;;;12.25;;
12832;SDS011;6483;51.310;4.462;2023-02-12T11:40:47;16.83;;;12.57;;
12832;SDS011;6483;51.310;4.462;2023-02-12T11:43:16;17.30;;;13.13;;
12832;SDS011;6483;51.310;4.462;2023-02-12T11:45:50;16.70;;;13.15;;
12832;SDS011;6483;51.310;4.462;2023-02-12T11:51:20;15.38;;;12.80;;
12832;SDS011;6483;51.310;4.462;2023-02-12T11:53:51;16.45;;;13.02;;
12832;SDS011;6483;51.310;4.462;2023-02-12T11:56:18;17.92;;;14.35;;
12832;SDS011;6483;51.310;4.462;2023-02-12T11:58:46;16.60;;;13.07;;
12832;SDS011;6483;51.310;4.462;2023-02-12T12:03:44;17.90;;;13.20;;
12832;SDS011;6483;51.310;4.462;2023-02-12T12:08:51;17.83;;;12.80;;
12832;SDS011;6483;51.310;4.462;2023-02-12T12:11:30;19.02;;;14.07;;
12832;SDS011;6483;51.310;4.462;2023-02-12T12:16:54;20.20;;;14.60;;
12832;SDS011;6483;51.310;4.462;2023-02-12T12:19:51;19.45;;;14.02;;
12832;SDS011;6483;51.310;4.462;2023-02-12T12:22:39;21.45;;;14.60;;
12832;SDS011;6483;51.310;4.462;2023-02-12T12:28:26;23.65;;;15.73;;
12832;SDS011;6483;51.310;4.462;2023-02-12T13:10:56;22.90;;;15.30;;
12832;SDS011;6483;51.310;4.462;2023-02-12T13:13:35;26.73;;;17.98;;
12832;SDS011;6483;51.310;4.462;2023-02-12T13:16:10;23.65;;;16.25;;
12832;SDS011;6483;51.310;4.462;2023-02-12T13:19:17;20.83;;;15.43;;
12832;SDS011;6483;51.310;4.462;2023-02-12T13:27:26;20.33;;;14.55;;
12832;SDS011;6483;51.310;4.462;2023-02-12T13:30:06;20.55;;;15.00;;
12832;SDS011;6483;51.310;4.462;2023-02-12T13:32:49;21.02;;;15.93;;
12832;SDS011;6483;51.310;4.462;2023-02-12T13:35:36;20.52;;;13.95;;
12832;SDS011;6483;51.310;4.462;2023-02-12T13:38:06;22.45;;;14.63;;
12832;SDS011;6483;51.310;4.462;2023-02-12T13:40:39;18.05;;;14.02;;
12832;SDS011;6483;51.310;4.462;2023-02-12T13:45:47;23.08;;;14.95;;
12832;SDS011;6483;51.310;4.462;2023-02-12T13:57:01;18.60;;;14.20;;
12832;SDS011;6483;51.310;4.462;2023-02-12T14:07:59;19.88;;;14.27;;
12832;SDS011;6483;51.310;4.462;2023-02-12T14:13:12;17.35;;;13.98;;
12832;SDS011;6483;51.310;4.462;2023-02-12T14:22:11;18.70;;;14.00;;
12832;SDS011;6483;51.310;4.462;2023-02-12T14:25:01;22.63;;;15.82;;
12832;SDS011;6483;51.310;4.462;2023-02-12T14:30:42;21.05;;;15.60;;
12832;SDS011;6483;51.310;4.462;2023-02-12T14:33:30;21.13;;;15.82;;
12832;SDS011;6483;51.310;4.462;2023-02-12T14:36:16;22.58;;;16.05;;
12832;SDS011;6483;51.310;4.462;2023-02-12T14:39:25;21.40;;;14.80;;
12832;SDS011;6483;51.310;4.462;2023-02-12T14:47:13;23.33;;;16.38;;
12832;SDS011;6483;51.310;4.462;2023-02-12T14:50:13;23.75;;;17.40;;
12832;SDS011;6483;51.310;4.462;2023-02-12T14:52:43;22.33;;;16.00;;
12832;SDS011;6483;51.310;4.462;2023-02-12T14:55:24;25.42;;;18.15;;
12832;SDS011;6483;51.310;4.462;2023-02-12T14:58:02;24.00;;;16.80;;
12832;SDS011;6483;51.310;4.462;2023-02-12T15:00:34;21.42;;;16.88;;
12832;SDS011;6483;51.310;4.462;2023-02-12T15:08:53;25.20;;;16.25;;
12832;SDS011;6483;51.310;4.462;2023-02-12T15:14:15;22.55;;;16.75;;
12832;SDS011;6483;51.310;4.462;2023-02-12T15:19:56;23.38;;;17.90;;
12832;SDS011;6483;51.310;4.462;2023-02-12T15:22:34;25.63;;;18.27;;
12832;SDS011;6483;51.310;4.462;2023-02-12T15:25:21;22.33;;;16.58;;
12832;SDS011;6483;51.310;4.462;2023-02-12T15:27:49;23.08;;;17.20;;
12832;SDS011;6483;51.310;4.462;2023-02-12T15:30:19;24.33;;;18.27;;
12832;SDS011;6483;51.310;4.462;2023-02-12T15:32:49;22.13;;;16.38;;
12832;SDS011;6483;51.310;4.462;2023-02-12T15:35:24;26.48;;;17.77;;
12832;SDS011;6483;51.310;4.462;2023-02-12T15:37:52;25.27;;;18.50;;
12832;SDS011;6483;51.310;4.462;2023-02-12T15:40:19;28.27;;;18.27;;
12832;SDS011;6483;51.310;4.462;2023-02-12T15:42:56;25.67;;;18.38;;
12832;SDS011;6483;51.310;4.462;2023-02-12T15:45:27;25.70;;;19.13;;
12832;SDS011;6483;51.310;4.462;2023-02-12T15:50:24;27.42;;;18.73;;
12832;SDS011;6483;51.310;4.462;2023-02-12T15:52:51;25.85;;;18.20;;
12832;SDS011;6483;51.310;4.462;2023-02-12T15:55:18;24.38;;;17.00;;
12832;SDS011;6483;51.310;4.462;2023-02-12T15:57:50;23.83;;;17.17;;
12832;SDS011;6483;51.310;4.462;2023-02-12T16:03:05;24.63;;;17.42;;
12832;SDS011;6483;51.310;4.462;2023-02-12T16:05:43;23.48;;;17.02;;
12832;SDS011;6483;51.310;4.462;2023-02-12T16:08:13;29.13;;;19.05;;
12832;SDS011;6483;51.310;4.462;2023-02-12T16:10:43;24.70;;;18.23;;
12832;SDS011;6483;51.310;4.462;2023-02-12T16:13:17;23.83;;;17.98;;
12832;SDS011;6483;51.310;4.462;2023-02-12T16:16:02;27.70;;;20.10;;
12832;SDS011;6483;51.310;4.462;2023-02-12T16:18:43;24.20;;;17.67;;
12832;SDS011;6483;51.310;4.462;2023-02-12T16:21:29;26.25;;;19.10;;
12832;SDS011;6483;51.310;4.462;2023-02-12T16:23:55;24.98;;;18.30;;
12832;SDS011;6483;51.310;4.462;2023-02-12T16:26:25;26.35;;;19.58;;
12832;SDS011;6483;51.310;4.462;2023-02-12T16:28:54;28.83;;;20.70;;
12832;SDS011;6483;51.310;4.462;2023-02-12T16:31:22;24.35;;;18.83;;
12832;SDS011;6483;51.310;4.462;2023-02-12T16:33:54;25.23;;;18.27;;
12832;SDS011;6483;51.310;4.462;2023-02-12T16:46:26;27.03;;;18.70;;
12832;SDS011;6483;51.310;4.462;2023-02-12T16:48:53;28.95;;;20.00;;
12832;SDS011;6483;51.310;4.462;2023-02-12T16:51:23;30.17;;;20.80;;
12832;SDS011;6483;51.310;4.462;2023-02-12T16:54:00;25.60;;;19.57;;
12832;SDS011;6483;51.310;4.462;2023-02-12T16:56:31;30.23;;;20.70;;
12832;SDS011;6483;51.310;4.462;2023-02-12T16:59:02;28.13;;;19.42;;
12832;SDS011;6483;51.310;4.462;2023-02-12T17:01:30;37.33;;;25.13;;
12832;SDS011;6483;51.310;4.462;2023-02-12T17:03:58;41.17;;;28.30;;
12832;SDS011;6483;51.310;4.462;2023-02-12T17:06:27;35.97;;;23.73;;
12832;SDS011;6483;51.310;4.462;2023-02-12T17:08:57;31.33;;;21.63;;
12832;SDS011;6483;51.310;4.462;2023-02-12T17:11:24;32.25;;;19.98;;
12832;SDS011;6483;51.310;4.462;2023-02-12T17:13:52;29.40;;;20.77;;
12832;SDS011;6483;51.310;4.462;2023-02-12T17:16:21;32.28;;;21.58;;
12832;SDS011;6483;51.310;4.462;2023-02-12T17:18:47;33.47;;;22.92;;
12832;SDS011;6483;51.310;4.462;2023-02-12T17:21:24;30.63;;;21.05;;
12832;SDS011;6483;51.310;4.462;2023-02-12T17:23:52;31.48;;;19.77;;
12832;SDS011;6483;51.310;4.462;2023-02-12T17:26:18;27.40;;;19.00;;
12832;SDS011;6483;51.310;4.462;2023-02-12T17:28:46;33.72;;;23.00;;
12832;SDS011;6483;51.310;4.462;2023-02-12T17:31:13;33.47;;;23.03;;
12832;SDS011;6483;51.310;4.462;2023-02-12T17:33:39;33.35;;;22.52;;
12832;SDS011;6483;51.310;4.462;2023-02-12T17:36:04;27.95;;;20.52;;
12832;SDS011;6483;51.310;4.462;2023-02-12T17:38:30;34.55;;;21.42;;
12832;SDS011;6483;51.310;4.462;2023-02-12T17:41:20;34.23;;;21.40;;
12832;SDS011;6483;51.310;4.462;2023-02-12T17:43:48;30.58;;;21.60;;
12832;SDS011;6483;51.310;4.462;2023-02-12T17:46:19;33.13;;;21.40;;
12832;SDS011;6483;51.310;4.462;2023-02-12T17:48:46;32.53;;;20.87;;
12832;SDS011;6483;51.310;4.462;2023-02-12T17:51:16;30.07;;;20.10;;
12832;SDS011;6483;51.310;4.462;2023-02-12T17:53:42;33.60;;;20.73;;
12832;SDS011;6483;51.310;4.462;2023-02-12T17:56:18;42.43;;;23.73;;
12832;SDS011;6483;51.310;4.462;2023-02-12T17:58:46;47.85;;;24.73;;
12832;SDS011;6483;51.310;4.462;2023-02-12T18:01:15;38.08;;;23.65;;
12832;SDS011;6483;51.310;4.462;2023-02-12T18:03:44;32.95;;;21.73;;
12832;SDS011;6483;51.310;4.462;2023-02-12T18:06:25;30.03;;;20.87;;
12832;SDS011;6483;51.310;4.462;2023-02-12T18:08:52;30.20;;;20.08;;
12832;SDS011;6483;51.310;4.462;2023-02-12T18:11:18;27.60;;;19.73;;
12832;SDS011;6483;51.310;4.462;2023-02-12T18:13:45;34.70;;;21.67;;
12832;SDS011;6483;51.310;4.462;2023-02-12T18:16:14;30.30;;;21.30;;
12832;SDS011;6483;51.310;4.462;2023-02-12T18:18:40;34.10;;;22.90;;
12832;SDS011;6483;51.310;4.462;2023-02-12T18:21:07;31.63;;;21.57;;
12832;SDS011;6483;51.310;4.462;2023-02-12T18:23:53;35.22;;;22.75;;
12832;SDS011;6483;51.310;4.462;2023-02-12T18:26:19;35.87;;;21.10;;
12832;SDS011;6483;51.310;4.462;2023-02-12T18:28:45;30.63;;;20.80;;
12832;SDS011;6483;51.310;4.462;2023-02-12T18:31:17;34.93;;;22.30;;
12832;SDS011;6483;51.310;4.462;2023-02-12T18:33:44;31.27;;;21.63;;